Time;durP1;ratioP1;P1;durP2;ratioP2;P2;SDS_P1;SDS_P2;PMS_P1;PMS_P2;Temp;Humidity;BMP_temperature;BMP_pressure;BME280_temperature;BME280_humidity;BME280_pressure;Samples;Min_cycle;Max_cycle;Signal;HPM_P1;HPM_P2
2022/05/10 00:01:41;;;;;;;19.73;11.65;;;;;;;11.48;100.00;102052.78;5267838;28;20020;-69
2022/05/10 00:04:12;;;;;;;22.30;11.50;;;;;;;11.45;100.00;102053.09;5267874;28;20024;-69
2022/05/10 00:06:46;;;;;;;16.52;10.70;;;;;;;11.47;100.00;102044.88;5269703;28;20116;-70
2022/05/10 00:09:22;;;;;;;24.20;12.20;;;;;;;11.49;100.00;102041.03;5289006;28;20106;-69
2022/05/10 00:11:52;;;;;;;22.05;12.48;;;;;;;11.48;100.00;102039.34;5284560;28;20057;-69
2022/05/10 00:14:22;;;;;;;20.40;12.10;;;;;;;11.47;100.00;102040.34;5279453;28;20101;-69
2022/05/10 00:16:54;;;;;;;22.40;13.25;;;;;;;11.45;100.00;102030.75;5269364;28;20026;-69
2022/05/10 00:19:27;;;;;;;24.00;12.68;;;;;;;11.43;100.00;102035.41;5280511;28;20084;-69
2022/05/10 00:21:58;;;;;;;20.42;12.63;;;;;;;11.37;100.00;102029.59;5267334;28;20027;-69
2022/05/10 00:24:29;;;;;;;23.25;13.20;;;;;;;11.35;100.00;102036.13;5282516;28;20027;-69
2022/05/10 00:27:00;;;;;;;21.63;12.27;;;;;;;11.33;100.00;102038.94;5279710;28;20039;-69
2022/05/10 00:29:31;;;;;;;20.98;12.45;;;;;;;11.28;100.00;102030.44;5283848;28;20023;-69
2022/05/10 00:32:01;;;;;;;25.88;12.65;;;;;;;11.22;100.00;102022.97;5278372;28;20443;-69
2022/05/10 00:34:34;;;;;;;23.48;13.15;;;;;;;11.20;100.00;102021.44;5271178;28;20030;-69
2022/05/10 00:37:06;;;;;;;21.88;13.55;;;;;;;11.18;100.00;102020.69;5276623;28;20324;-69
2022/05/10 00:39:37;;;;;;;27.70;11.98;;;;;;;11.07;100.00;102025.22;5267957;28;20508;-69
2022/05/10 00:42:17;;;;;;;22.15;12.65;;;;;;;11.00;100.00;102013.34;5280114;28;20027;-69
2022/05/10 00:44:53;;;;;;;20.80;12.30;;;;;;;10.93;100.00;102012.22;5280358;28;20020;-69
2022/05/10 00:47:47;;;;;;;21.75;13.50;;;;;;;10.89;100.00;102013.47;5280940;28;20023;-69
2022/05/10 00:50:24;;;;;;;26.10;14.73;;;;;;;10.90;100.00;102009.81;5265700;28;20059;-69
2022/05/10 00:53:14;;;;;;;26.65;14.38;;;;;;;10.90;100.00;102004.44;5266674;28;20063;-69
2022/05/10 00:55:59;;;;;;;35.33;14.15;;;;;;;10.91;100.00;101997.25;5266675;28;20102;-69
2022/05/10 00:58:32;;;;;;;19.90;12.68;;;;;;;10.92;100.00;102004.31;5267536;28;20500;-69
2022/05/10 01:01:04;;;;;;;22.95;14.30;;;;;;;10.90;100.00;102007.13;5266828;28;20043;-69
2022/05/10 01:03:41;;;;;;;30.08;14.27;;;;;;;10.86;100.00;102000.34;5281026;28;20023;-69
2022/05/10 01:06:38;;;;;;;22.02;13.40;;;;;;;10.84;100.00;102000.50;5279459;28;20108;-69
2022/05/10 01:09:24;;;;;;;25.20;13.90;;;;;;;10.81;100.00;102003.44;5267120;28;20043;-69
2022/05/10 01:11:58;;;;;;;;;;;;;;;10.75;100.00;101995.97;5284902;28;20047;-69
2022/05/10 01:14:46;;;;;;;23.02;13.52;;;;;;;10.75;100.00;101997.81;5279956;28;19908;-68
2022/05/10 01:17:17;;;;;;;18.45;11.13;;;;;;;10.77;100.00;101999.34;5280231;28;20020;-68
2022/05/10 01:19:48;;;;;;;20.95;12.23;;;;;;;10.82;100.00;101994.41;5281893;28;20434;-69
2022/05/10 01:22:40;;;;;;;28.05;12.30;;;;;;;10.88;100.00;101990.31;5287741;28;20084;-69
2022/05/10 01:25:41;;;;;;;18.38;12.25;;;;;;;10.94;100.00;101983.53;5267970;28;20507;-69
2022/05/10 01:28:30;;;;;;;21.05;12.68;;;;;;;11.02;100.00;101979.16;5266468;28;20020;-69
2022/05/10 01:31:11;;;;;;;19.65;12.80;;;;;;;11.06;100.00;101971.66;5267101;28;20027;-69
2022/05/10 01:34:01;;;;;;;19.65;11.93;;;;;;;11.11;100.00;101972.94;5288138;28;20020;-69
2022/05/10 01:36:52;;;;;;;21.42;11.75;;;;;;;11.11;100.00;101967.56;5267939;28;20038;-69
2022/05/10 01:39:27;;;;;;;18.80;12.48;;;;;;;11.03;100.00;101974.63;5269971;28;20396;-69
2022/05/10 01:42:34;;;;;;;25.25;13.75;;;;;;;10.83;100.00;101971.94;5274643;28;20389;-69
2022/05/10 01:45:13;;;;;;;19.52;11.13;;;;;;;10.60;100.00;101966.00;5276789;28;20020;-69
2022/05/10 01:47:50;;;;;;;18.98;12.70;;;;;;;10.51;100.00;101955.25;5268466;28;20021;-70
2022/05/10 01:50:50;;;;;;;25.73;13.52;;;;;;;10.44;100.00;101960.31;5278883;28;20066;-69
2022/05/10 01:53:40;;;;;;;24.25;13.68;;;;;;;10.44;100.00;101959.44;5265974;28;20378;-69
2022/05/10 01:56:16;;;;;;;26.25;14.80;;;;;;;10.45;100.00;101951.28;5272998;28;20024;-68
2022/05/10 01:58:48;;;;;;;25.60;15.65;;;;;;;10.51;100.00;101950.72;5273324;28;20028;-68
2022/05/10 02:01:31;;;;;;;27.13;15.07;;;;;;;10.57;100.00;101949.31;5277106;28;20358;-68
2022/05/10 02:04:13;;;;;;;27.10;15.73;;;;;;;10.57;100.00;101944.78;5266006;28;20028;-68
2022/05/10 02:06:45;;;;;;;23.75;13.55;;;;;;;10.59;100.00;101941.97;5274790;28;20072;-69
2022/05/10 02:09:26;;;;;;;26.23;14.18;;;;;;;10.60;100.00;101947.22;5287225;28;20027;-68
2022/05/10 02:12:23;;;;;;;21.90;13.65;;;;;;;10.60;100.00;101941.84;5273298;28;20484;-69
2022/05/10 02:15:02;;;;;;;28.30;13.27;;;;;;;10.63;100.00;101933.50;5285307;28;20031;-69
2022/05/10 02:17:37;;;;;;;21.88;13.45;;;;;;;10.67;100.00;101939.44;5276115;28;20027;-69
2022/05/10 02:20:29;;;;;;;20.50;13.35;;;;;;;10.68;100.00;101932.22;5273233;28;20023;-69
2022/05/10 02:23:07;;;;;;;27.00;13.82;;;;;;;10.66;100.00;101926.16;5273038;28;20129;-69
2022/05/10 02:25:42;;;;;;;24.77;13.48;;;;;;;10.63;100.00;101919.22;5276487;28;20791;-68
2022/05/10 02:28:34;;;;;;;23.48;14.45;;;;;;;10.61;100.00;101913.16;5279532;28;20069;-69
2022/05/10 02:31:12;;;;;;;22.42;12.07;;;;;;;10.60;100.00;101915.00;5279420;28;20164;-69
2022/05/10 02:33:46;;;;;;;19.08;12.32;;;;;;;10.62;100.00;101907.66;5275103;28;20023;-69
2022/05/10 02:36:17;;;;;;;29.45;15.00;;;;;;;10.67;100.00;101909.06;5273544;28;20024;-69
2022/05/10 02:38:48;;;;;;;29.48;13.77;;;;;;;10.68;100.00;101902.72;5274694;28;20067;-69
2022/05/10 02:41:21;;;;;;;30.90;15.30;;;;;;;10.67;100.00;101901.88;5271236;28;20094;-68
2022/05/10 02:43:56;;;;;;;20.50;12.90;;;;;;;10.68;100.00;101900.03;5273506;28;20024;-68
2022/05/10 02:46:27;;;;;;;27.15;15.15;;;;;;;10.68;100.00;101900.03;5265653;28;20058;-70
2022/05/10 02:48:58;;;;;;;23.33;14.38;;;;;;;10.71;100.00;101886.34;5265631;28;20024;-69
2022/05/10 02:51:28;;;;;;;22.52;14.80;;;;;;;10.73;100.00;101893.25;5274619;28;20030;-68
2022/05/10 02:53:59;;;;;;;25.80;14.52;;;;;;;10.73;100.00;101887.88;5283649;28;20016;-70
2022/05/10 02:56:30;;;;;;;26.05;15.05;;;;;;;10.75;100.00;101885.91;5275777;28;20028;-69
2022/05/10 02:59:08;;;;;;;26.60;14.43;;;;;;;10.78;100.00;101884.75;5286741;28;20032;-69
2022/05/10 03:01:57;;;;;;;27.95;15.60;;;;;;;10.79;100.00;101881.97;5277461;28;20050;-68
2022/05/10 03:04:51;;;;;;;23.55;13.77;;;;;;;10.82;100.00;101881.66;5278395;28;20408;-69
2022/05/10 03:07:22;;;;;;;22.75;13.95;;;;;;;10.86;100.00;101882.22;5283848;28;20016;-70
2022/05/10 03:09:53;;;;;;;29.83;15.25;;;;;;;10.88;100.00;101878.38;5282869;28;20024;-69
2022/05/10 03:12:24;;;;;;;23.67;14.32;;;;;;;10.93;100.00;101869.06;5277107;28;20030;-70
2022/05/10 03:14:54;;;;;;;27.30;15.10;;;;;;;10.97;100.00;101868.63;5274763;28;20024;-70
2022/05/10 03:17:25;;;;;;;23.05;14.68;;;;;;;11.02;100.00;101876.25;5269248;28;20431;-69
2022/05/10 03:19:56;;;;;;;25.85;15.00;;;;;;;11.02;100.00;101874.44;5268821;28;20028;-70
2022/05/10 03:22:26;;;;;;;32.13;16.42;;;;;;;11.04;100.00;101867.06;5269164;28;20095;-70
2022/05/10 03:24:57;;;;;;;26.90;16.17;;;;;;;11.06;100.00;101864.25;5273225;28;20027;-69
2022/05/10 03:27:28;;;;;;;26.58;15.55;;;;;;;11.09;100.00;101864.81;5290011;28;20028;-68
2022/05/10 03:29:58;;;;;;;28.77;15.20;;;;;;;11.10;100.00;101854.91;5270489;27;20567;-69
2022/05/10 03:32:29;;;;;;;23.10;14.43;;;;;;;11.11;100.00;101857.44;5282174;28;20024;-68
2022/05/10 03:35:00;;;;;;;31.73;15.15;;;;;;;11.12;100.00;101856.44;5268638;28;20103;-70
2022/05/10 03:37:31;;;;;;;24.70;15.18;;;;;;;11.17;100.00;101860.53;5269565;28;20039;-69
2022/05/10 03:40:02;;;;;;;30.38;16.50;;;;;;;11.18;100.00;101852.34;5280947;28;20020;-68
2022/05/10 03:42:33;;;;;;;27.02;14.73;;;;;;;11.21;100.00;101851.22;5281949;28;20028;-69
2022/05/10 03:45:03;;;;;;;25.33;14.60;;;;;;;11.24;100.00;101854.44;5268318;28;20031;-69
2022/05/10 03:47:34;;;;;;;25.15;14.32;;;;;;;11.26;100.00;101840.88;5281913;28;20031;-69
2022/05/10 03:50:05;;;;;;;24.33;14.65;;;;;;;11.28;100.00;101845.09;5279620;28;20031;-68
2022/05/10 03:52:38;;;;;;;25.48;15.48;;;;;;;11.32;100.00;101842.97;5275908;27;20072;-68
2022/05/10 03:55:13;;;;;;;32.25;16.10;;;;;;;11.37;100.00;101841.53;5276161;28;20090;-69
2022/05/10 03:57:44;;;;;;;25.52;15.10;;;;;;;11.41;100.00;101842.09;5276244;28;20035;-69
2022/05/10 04:00:18;;;;;;;25.40;15.73;;;;;;;11.43;100.00;101837.41;5273526;28;20092;-69
2022/05/10 04:02:49;;;;;;;24.55;14.10;;;;;;;11.48;100.00;101843.19;5267158;28;20028;-70
2022/05/10 04:05:20;;;;;;;27.08;16.10;;;;;;;11.53;100.00;101826.63;5282160;28;20027;-70
2022/05/10 04:07:51;;;;;;;29.08;15.45;;;;;;;11.57;100.00;101831.53;5293577;27;20065;-69
2022/05/10 04:10:22;;;;;;;33.55;15.55;;;;;;;11.61;100.00;101834.78;5284365;28;20024;-68
2022/05/10 04:12:52;;;;;;;29.33;15.07;;;;;;;11.65;100.00;101834.34;5279746;28;20482;-68
2022/05/10 04:15:23;;;;;;;23.70;16.05;;;;;;;11.67;100.00;101832.34;5282169;28;20397;-68
2022/05/10 04:17:53;;;;;;;23.90;15.27;;;;;;;11.70;100.00;101830.34;5281473;28;20027;-69
2022/05/10 04:20:24;;;;;;;31.77;16.98;;;;;;;11.74;100.00;101829.03;5275455;28;20020;-69
2022/05/10 04:22:55;;;;;;;23.55;15.95;;;;;;;11.77;100.00;101836.81;5288834;28;20027;-69
2022/05/10 04:25:25;;;;;;;28.92;15.55;;;;;;;11.81;100.00;101832.84;5279496;28;20524;-70
2022/05/10 04:27:56;;;;;;;25.70;15.63;;;;;;;11.83;100.00;101825.50;5284317;28;20039;-70
2022/05/10 04:30:26;;;;;;;26.67;16.00;;;;;;;11.87;100.00;101829.59;5278509;28;20121;-69
2022/05/10 04:32:57;;;;;;;25.20;15.65;;;;;;;11.95;100.00;101827.00;5267460;28;20019;-68
2022/05/10 04:35:27;;;;;;;27.85;15.82;;;;;;;12.01;100.00;101833.59;5277724;28;20027;-69
2022/05/10 04:38:13;;;;;;;28.25;15.23;;;;;;;12.06;100.00;101828.63;5274573;28;20027;-68
2022/05/10 04:43:34;;;;;;;25.92;14.90;;;;;;;12.12;100.00;101819.94;5267427;28;19908;-70
2022/05/10 04:46:05;;;;;;;28.05;14.05;;;;;;;12.24;100.00;101828.63;5271674;28;20024;-69
2022/05/10 04:48:36;;;;;;;26.75;14.75;;;;;;;12.31;100.00;101830.56;5275027;28;20445;-70
2022/05/10 04:51:07;;;;;;;27.38;15.43;;;;;;;12.38;100.00;101828.09;5280655;28;20118;-69
2022/05/10 04:53:37;;;;;;;27.58;14.85;;;;;;;12.46;100.00;101825.47;5267771;28;20019;-69
2022/05/10 04:56:08;;;;;;;25.80;14.80;;;;;;;12.54;100.00;101825.53;5280320;28;20028;-69
2022/05/10 04:58:38;;;;;;;29.52;14.48;;;;;;;12.64;100.00;101828.13;5280871;28;20484;-70
2022/05/10 05:01:12;;;;;;;22.13;12.82;;;;;;;12.74;100.00;101828.03;5275689;28;20024;-68
2022/05/10 05:03:45;;;;;;;24.23;14.07;;;;;;;12.83;100.00;101830.66;5271628;28;20016;-68
2022/05/10 05:06:16;;;;;;;21.63;13.43;;;;;;;13.00;100.00;101828.06;5271640;28;20526;-69
2022/05/10 05:08:47;;;;;;;23.15;13.48;;;;;;;13.12;100.00;101824.94;5268313;28;20030;-69
2022/05/10 05:11:18;;;;;;;26.92;14.35;;;;;;;13.26;100.00;101825.41;5266549;28;20424;-69
2022/05/10 05:13:49;;;;;;;23.73;12.77;;;;;;;13.40;100.00;101819.41;5272914;28;20036;-69
2022/05/10 05:16:19;;;;;;;20.80;12.60;;;;;;;13.59;100.00;101815.63;5274326;28;20028;-69
2022/05/10 05:18:50;;;;;;;22.25;12.80;;;;;;;13.76;100.00;101822.78;5287316;28;20110;-69
2022/05/10 05:21:20;;;;;;;22.52;12.50;;;;;;;13.98;100.00;101815.91;5273468;28;20016;-68
2022/05/10 05:23:51;;;;;;;23.27;12.25;;;;;;;14.19;100.00;101815.44;5286810;28;20481;-69
2022/05/10 05:26:22;;;;;;;18.92;12.30;;;;;;;14.40;100.00;101821.19;5270536;28;20027;-69
2022/05/10 05:28:52;;;;;;;20.63;12.18;;;;;;;14.62;100.00;101819.72;5266479;28;20054;-70
2022/05/10 05:31:24;;;;;;;22.08;11.98;;;;;;;14.86;100.00;101816.19;5278880;28;20073;-69
2022/05/10 05:33:55;;;;;;;17.60;11.07;;;;;;;15.09;100.00;101813.59;5276854;28;20102;-69
2022/05/10 05:36:26;;;;;;;16.27;11.10;;;;;;;15.32;100.00;101813.72;5286686;28;20031;-69
2022/05/10 05:38:56;;;;;;;21.35;10.93;;;;;;;15.53;100.00;101818.53;5274276;28;20031;-69
2022/05/10 05:41:27;;;;;;;20.55;10.20;;;;;;;15.73;100.00;101810.88;5266226;28;20034;-68
2022/05/10 05:43:57;;;;;;;19.73;10.55;;;;;;;15.87;100.00;101810.13;5280284;28;20130;-69
2022/05/10 05:46:28;;;;;;;20.55;9.85;;;;;;;16.03;100.00;101809.19;5265720;28;20039;-69
2022/05/10 05:49:01;;;;;;;17.38;10.13;;;;;;;16.24;100.00;101805.81;5268454;28;20027;-69
2022/05/10 05:51:31;;;;;;;18.35;9.50;;;;;;;16.38;100.00;101810.44;5287277;28;20024;-69
2022/05/10 05:54:03;;;;;;;15.40;9.35;;;;;;;16.60;100.00;101802.47;5273984;28;20027;-69
2022/05/10 05:56:33;;;;;;;16.88;9.68;;;;;;;16.95;100.00;101801.00;5275034;28;20102;-69
2022/05/10 05:59:04;;;;;;;17.00;9.20;;;;;;;17.34;100.00;101803.44;5284896;28;20209;-69
2022/05/10 06:01:34;;;;;;;16.55;8.95;;;;;;;17.43;100.00;101807.75;5273871;28;20060;-69
2022/05/10 06:04:05;;;;;;;15.75;8.65;;;;;;;17.71;100.00;101797.03;5272842;28;20039;-69
2022/05/10 06:06:35;;;;;;;13.05;8.90;;;;;;;17.95;100.00;101803.19;5286419;28;20026;-69
2022/05/10 06:09:06;;;;;;;17.98;8.52;;;;;;;18.08;100.00;101797.91;5265939;28;20111;-69
2022/05/10 06:11:36;;;;;;;12.80;8.30;;;;;;;18.42;100.00;101801.78;5279059;28;20038;-69
2022/05/10 06:14:07;;;;;;;10.30;7.93;;;;;;;18.64;100.00;101798.88;5267886;28;20020;-69
2022/05/10 06:16:40;;;;;;;14.30;8.25;;;;;;;18.69;100.00;101801.03;5273125;28;20027;-69
2022/05/10 06:19:12;;;;;;;11.55;7.78;;;;;;;18.75;100.00;101802.94;5275750;28;20481;-69
2022/05/10 06:21:43;;;;;;;14.30;8.98;;;;;;;18.73;100.00;101802.31;5265329;28;20100;-69
2022/05/10 06:24:13;;;;;;;12.40;7.28;;;;;;;18.70;100.00;101802.69;5278551;28;20040;-69
2022/05/10 06:26:44;;;;;;;13.23;8.05;;;;;;;18.62;100.00;101797.38;5280114;27;20031;-70
2022/05/10 06:29:14;;;;;;;15.57;8.18;;;;;;;18.51;100.00;101803.34;5279877;28;20412;-69
2022/05/10 06:31:46;;;;;;;12.70;8.23;;;;;;;18.55;100.00;101796.47;5286513;28;20028;-70
2022/05/10 06:34:17;;;;;;;15.27;7.93;;;;;;;18.35;100.00;101791.72;5272837;28;20072;-70
2022/05/10 06:36:48;;;;;;;13.45;9.20;;;;;;;18.25;100.00;101796.63;5282404;28;20097;-69
2022/05/10 06:39:18;;;;;;;15.93;8.32;;;;;;;18.42;100.00;101790.91;5269572;28;20497;-69
2022/05/10 06:41:49;;;;;;;11.93;7.80;;;;;;;18.61;100.00;101787.53;5269907;28;20535;-69
2022/05/10 06:44:19;;;;;;;15.93;7.35;;;;;;;18.64;100.00;101785.28;5273521;28;20492;-70
2022/05/10 06:46:49;;;;;;;12.57;7.88;;;;;;;18.67;100.00;101784.03;5278699;28;20023;-69
2022/05/10 06:49:20;;;;;;;12.05;7.72;;;;;;;18.91;100.00;101795.53;5283348;28;20127;-70
2022/05/10 06:51:50;;;;;;;12.77;7.10;;;;;;;18.93;100.00;101788.03;5282636;28;20028;-70
2022/05/10 06:54:21;;;;;;;13.55;7.53;;;;;;;18.98;100.00;101778.25;5269971;28;20016;-69
2022/05/10 06:56:51;;;;;;;12.63;7.38;;;;;;;19.20;100.00;101783.59;5283858;28;20106;-69
2022/05/10 06:59:22;;;;;;;17.30;7.65;;;;;;;19.37;100.00;101780.34;5281937;28;20058;-69
2022/05/10 07:01:52;;;;;;;10.68;6.95;;;;;;;19.20;100.00;101767.28;5282915;28;20031;-69
2022/05/10 07:04:22;;;;;;;13.60;7.72;;;;;;;19.40;100.00;101776.38;5278140;28;20020;-69
2022/05/10 07:06:53;;;;;;;9.18;6.47;;;;;;;19.66;100.00;101776.53;5282911;27;20088;-69
2022/05/10 07:09:23;;;;;;;12.73;7.35;;;;;;;19.89;100.00;101778.06;5278779;28;20052;-69
2022/05/10 07:11:54;;;;;;;11.38;6.63;;;;;;;20.44;100.00;101774.19;5273482;28;20050;-70
2022/05/10 07:14:24;;;;;;;14.57;6.63;;;;;;;20.78;100.00;101775.00;5286960;28;20042;-70
2022/05/10 07:16:56;;;;;;;15.45;6.55;;;;;;;20.93;100.00;101772.94;5287685;28;20028;-70
2022/05/10 07:19:26;;;;;;;10.25;6.07;;;;;;;20.69;100.00;101765.41;5286739;28;20027;-70
2022/05/10 07:21:57;;;;;;;9.48;6.47;;;;;;;20.48;100.00;101768.31;5287083;28;20594;-70
2022/05/10 07:24:28;;;;;;;10.07;6.00;;;;;;;20.23;100.00;101759.88;5286498;28;20389;-70
2022/05/10 07:26:58;;;;;;;11.40;6.65;;;;;;;20.32;100.00;101766.81;5287208;28;20031;-69
2022/05/10 07:29:29;;;;;;;12.32;6.47;;;;;;;20.21;100.00;101756.53;5272909;28;20020;-70
2022/05/10 07:31:59;;;;;;;12.85;6.20;;;;;;;20.23;100.00;101754.44;5285923;28;20020;-69
2022/05/10 07:34:30;;;;;;;14.60;6.57;;;;;;;20.15;100.00;101764.50;5272998;28;20080;-70
2022/05/10 07:37:00;;;;;;;14.50;6.85;;;;;;;20.13;100.00;101761.16;5286818;28;20046;-69
2022/05/10 07:39:31;;;;;;;12.18;7.28;;;;;;;20.14;100.00;101764.72;5268309;28;20028;-70
2022/05/10 07:42:04;;;;;;;13.55;6.68;;;;;;;20.20;100.00;101763.88;5265950;28;20429;-70
2022/05/10 07:44:34;;;;;;;17.33;6.43;;;;;;;20.26;100.00;101765.78;5285480;28;20426;-70
2022/05/10 07:47:05;;;;;;;13.50;6.88;;;;;;;20.26;100.00;101768.50;5285731;27;20023;-69
2022/05/10 07:49:35;;;;;;;12.10;6.68;;;;;;;20.35;100.00;101767.25;5278856;28;20397;-70
2022/05/10 07:52:06;;;;;;;15.02;6.18;;;;;;;20.22;100.00;101767.22;5280150;28;20072;-69
2022/05/10 07:54:36;;;;;;;13.02;6.55;;;;;;;20.34;100.00;101756.56;5286831;27;20035;-70
2022/05/10 07:57:07;;;;;;;11.70;6.90;;;;;;;20.27;100.00;101747.53;5286347;28;20056;-70
2022/05/10 07:59:37;;;;;;;14.13;6.57;;;;;;;20.22;100.00;101750.88;5286152;28;20023;-70
2022/05/10 08:02:08;;;;;;;13.27;6.38;;;;;;;20.29;100.00;101757.19;5272471;28;20126;-70
2022/05/10 08:04:38;;;;;;;15.77;6.72;;;;;;;20.42;100.00;101754.44;5286616;28;20019;-69
2022/05/10 08:07:09;;;;;;;12.13;6.50;;;;;;;20.44;100.00;101752.38;5285975;28;20043;-69
2022/05/10 08:09:39;;;;;;;12.43;7.00;;;;;;;20.53;100.00;101753.00;5286768;28;20060;-70
2022/05/10 08:12:10;;;;;;;11.98;6.47;;;;;;;20.54;100.00;101752.00;5264870;28;20059;-69
2022/05/10 08:14:40;;;;;;;11.88;6.10;;;;;;;20.72;100.00;101755.94;5270832;28;20035;-70
2022/05/10 08:17:11;;;;;;;16.27;6.68;;;;;;;20.47;100.00;101755.75;5265281;28;20027;-70
2022/05/10 08:19:41;;;;;;;13.30;5.82;;;;;;;20.37;100.00;101753.41;5267169;28;20076;-70
2022/05/10 08:22:11;;;;;;;11.05;6.32;;;;;;;20.54;100.00;101746.53;5284518;28;20106;-69
2022/05/10 08:24:42;;;;;;;12.18;6.13;;;;;;;20.48;100.00;101741.06;5271961;28;20111;-69
2022/05/10 08:27:13;;;;;;;11.77;6.15;;;;;;;20.60;100.00;101747.56;5285699;28;20027;-70
2022/05/10 08:29:43;;;;;;;15.32;6.15;;;;;;;20.63;100.00;101742.56;5280896;28;20525;-69
2022/05/10 08:32:15;;;;;;;8.90;5.28;;;;;;;20.66;100.00;101744.84;5276976;28;20481;-70
2022/05/10 08:34:45;;;;;;;11.88;5.28;;;;;;;20.65;100.00;101747.78;5285612;27;20102;-70
2022/05/10 08:37:16;;;;;;;13.63;5.80;;;;;;;20.98;100.00;101739.53;5283615;28;20115;-69
2022/05/10 08:39:46;;;;;;;11.32;5.53;;;;;;;21.28;100.00;101739.03;5278725;28;20028;-70
2022/05/10 08:42:23;;;;;;;9.50;5.90;;;;;;;21.17;100.00;101744.09;5278665;28;20054;-69
2022/05/10 08:44:58;;;;;;;9.88;5.68;;;;;;;21.27;100.00;101738.19;5272943;28;20110;-70
2022/05/10 08:47:28;;;;;;;;;;;;;;;21.39;100.00;101733.78;5285869;28;20023;-70
2022/05/10 08:50:02;;;;;;;11.15;5.28;;;;;;;21.69;100.00;101730.50;5275296;28;19918;-69
2022/05/10 08:52:35;;;;;;;9.02;5.47;;;;;;;21.68;100.00;101728.78;5268399;28;20020;-70
2022/05/10 08:55:08;;;;;;;10.85;4.93;;;;;;;22.11;100.00;101730.88;5284946;28;20510;-70
2022/05/10 08:57:48;;;;;;;11.48;4.78;;;;;;;22.52;100.00;101734.97;5278543;28;20028;-70
2022/05/10 09:00:35;;;;;;;8.35;5.43;;;;;;;22.41;100.00;101731.91;5265118;28;20028;-70
2022/05/10 09:03:28;;;;;;;10.57;4.57;;;;;;;23.06;100.00;101733.41;5274027;28;20381;-69
2022/05/10 09:06:05;;;;;;;9.32;4.47;;;;;;;23.68;100.00;101725.91;5272640;28;20054;-70
2022/05/10 09:08:49;;;;;;;10.07;4.57;;;;;;;24.11;100.00;101733.06;5281824;27;20086;-70
2022/05/10 09:11:21;;;;;;;8.10;4.93;;;;;;;24.49;100.00;101732.66;5276048;28;20107;-70
2022/05/10 09:13:53;;;;;;;12.13;4.03;;;;;;;25.11;93.70;101726.72;5271505;27;20030;-70
2022/05/10 09:16:24;;;;;;;5.82;3.83;;;;;;;24.46;92.67;101720.28;5271449;28;20073;-70
2022/05/10 09:18:55;;;;;;;11.88;3.97;;;;;;;24.07;95.69;101715.44;5277262;28;20032;-70
2022/05/10 09:21:32;;;;;;;18.17;4.72;;;;;;;24.71;92.51;101717.31;5264743;28;20048;-70
2022/05/10 09:24:38;;;;;;;8.00;3.90;;;;;;;24.66;90.82;101710.88;5285194;28;20103;-70
2022/05/10 09:27:10;;;;;;;6.97;4.03;;;;;;;25.24;95.05;101693.47;5264219;28;20038;-70
2022/05/10 09:29:46;;;;;;;9.50;4.18;;;;;;;25.51;89.57;101689.09;5279391;28;20034;-71
2022/05/10 09:35:27;;;;;;;8.65;4.28;;;;;;;25.05;86.70;101701.88;5272920;28;20204;-70
2022/05/10 09:38:02;;;;;;;10.20;4.97;;;;;;;24.50;88.33;101701.47;5279495;28;20045;-70
2022/05/10 09:40:48;;;;;;;8.13;4.40;;;;;;;25.10;88.96;101694.81;5263843;28;20389;-71
2022/05/10 09:43:26;;;;;;;16.52;4.50;;;;;;;24.39;80.23;101702.25;5273176;28;20031;-70
2022/05/10 09:46:34;;;;;;;10.38;4.38;;;;;;;24.16;85.31;101703.06;5284455;28;20056;-70
2022/05/10 09:49:05;;;;;;;10.23;4.20;;;;;;;24.49;81.25;101692.38;5267388;28;20031;-70
2022/05/10 09:51:39;;;;;;;13.75;4.35;;;;;;;25.34;82.60;101698.34;5274147;28;20036;-70
2022/05/10 09:54:33;;;;;;;10.30;4.03;;;;;;;25.35;81.52;101695.34;5279945;28;20039;-71
2022/05/10 09:57:09;;;;;;;7.88;4.50;;;;;;;25.41;75.34;101693.56;5279579;28;20072;-70
2022/05/10 10:00:13;;;;;;;13.15;4.40;;;;;;;25.75;71.29;101689.81;5275595;28;20051;-71
2022/05/10 10:02:43;;;;;;;12.10;4.47;;;;;;;25.99;71.55;101682.28;5272675;28;20061;-71
2022/05/10 10:05:31;;;;;;;10.30;4.30;;;;;;;26.25;71.70;101686.28;5283017;27;20020;-70
2022/05/10 10:08:01;;;;;;;17.75;4.80;;;;;;;25.95;69.83;101686.59;5271758;28;20021;-71
2022/05/10 10:10:34;;;;;;;10.90;4.95;;;;;;;25.67;69.76;101678.41;5285602;28;20035;-71
2022/05/10 10:13:26;;;;;;;10.48;4.65;;;;;;;25.66;71.93;101679.47;5289673;28;20342;-71
2022/05/10 10:15:57;;;;;;;12.02;3.80;;;;;;;25.96;68.26;101685.56;5278453;28;20028;-71
2022/05/10 10:18:48;;;;;;;11.77;4.35;;;;;;;25.51;68.61;101689.09;5268364;28;20032;-71
2022/05/10 10:21:25;;;;;;;12.50;3.85;;;;;;;25.35;68.34;101684.38;5281398;28;20393;-71
2022/05/10 10:23:58;;;;;;;13.45;5.13;;;;;;;25.45;73.28;101683.72;5278227;28;20043;-70
2022/05/10 10:26:47;;;;;;;15.40;4.22;;;;;;;25.59;70.60;101685.09;5289179;28;20059;-70
2022/05/10 10:29:39;;;;;;;9.90;4.47;;;;;;;25.60;73.53;101680.44;5289527;28;20110;-71
2022/05/10 10:32:33;;;;;;;8.88;4.78;;;;;;;25.46;71.36;101672.53;5278299;28;20323;-70
2022/05/10 10:35:13;;;;;;;11.40;4.75;;;;;;;25.63;70.38;101671.72;5289454;28;20534;-71
2022/05/10 10:37:51;;;;;;;12.82;3.72;;;;;;;25.91;69.79;101663.47;5288454;28;20020;-71
2022/05/10 10:40:43;;;;;;;9.05;4.38;;;;;;;26.49;66.36;101659.47;5268395;28;20443;-71
2022/05/10 10:43:31;;;;;;;7.53;4.20;;;;;;;26.50;70.78;101655.63;5276392;28;20042;-71
2022/05/10 10:46:17;;;;;;;6.72;4.18;;;;;;;26.26;68.17;101663.22;5284613;28;20063;-71
2022/05/10 10:48:49;;;;;;;10.00;4.43;;;;;;;25.96;66.84;101658.06;5282568;28;20027;-71
2022/05/10 10:51:22;;;;;;;14.85;5.28;;;;;;;25.86;65.26;101663.38;5289077;28;20020;-71
2022/05/10 10:53:53;;;;;;;9.20;4.90;;;;;;;25.39;68.73;101647.09;5289152;28;20427;-70
2022/05/10 10:57:01;;;;;;;9.80;4.47;;;;;;;25.25;68.16;101648.47;5289537;28;20023;-71
2022/05/10 10:59:48;;;;;;;7.80;4.28;;;;;;;25.06;70.09;101658.78;5276635;28;20027;-70
2022/05/10 11:02:46;;;;;;;7.10;4.18;;;;;;;25.82;68.54;101651.22;5274676;28;20024;-71
2022/05/10 11:05:54;;;;;;;9.43;4.15;;;;;;;25.98;68.56;101644.06;5285417;28;20020;-70
2022/05/10 11:08:57;;;;;;;9.00;4.20;;;;;;;25.97;65.66;101643.22;5282366;28;20073;-71
2022/05/10 11:11:34;;;;;;;14.57;4.60;;;;;;;25.64;65.09;101633.00;5287800;28;20450;-71
2022/05/10 11:14:41;;;;;;;11.82;4.13;;;;;;;25.96;66.60;101635.25;5282532;28;20035;-71
2022/05/10 11:17:43;;;;;;;16.73;5.20;;;;;;;25.37;67.81;101631.97;5288455;28;20027;-71
2022/05/10 11:20:21;;;;;;;15.05;5.45;;;;;;;25.86;71.23;101626.81;5283626;28;20059;-71
2022/05/10 11:22:51;;;;;;;10.57;4.10;;;;;;;26.69;63.67;101622.31;5280714;28;20024;-71
2022/05/10 11:25:50;;;;;;;12.68;4.55;;;;;;;26.39;65.93;101626.25;5288359;28;20042;-70
2022/05/10 11:28:22;;;;;;;13.82;5.00;;;;;;;26.45;67.92;101638.19;5287874;28;20076;-71
2022/05/10 11:30:57;;;;;;;14.40;4.53;;;;;;;26.29;66.67;101634.38;5288847;28;20503;-70
2022/05/10 11:33:55;;;;;;;9.38;4.07;;;;;;;26.14;67.15;101625.88;5288527;28;20038;-71
2022/05/10 11:36:47;;;;;;;14.65;4.53;;;;;;;25.94;67.38;101629.13;5287293;28;20059;-71
2022/05/10 11:39:36;;;;;;;12.52;4.72;;;;;;;25.57;68.06;101619.44;5274307;28;20016;-71
2022/05/10 11:42:21;;;;;;;15.77;4.32;;;;;;;25.86;66.91;101624.06;5276276;28;20089;-71
2022/05/10 11:45:08;;;;;;;;;;;;;;;26.30;63.56;101623.09;5275173;28;20400;-70
2022/05/10 11:47:54;;;;;;;14.77;5.10;;;;;;;26.53;65.83;101613.84;5274559;28;20379;-71
2022/05/10 11:54:28;;;;;;;6.20;3.97;;;;;;;26.22;64.94;101606.22;5285954;28;20035;-71
2022/05/10 11:57:00;;;;;;;8.35;4.25;;;;;;;26.19;64.02;101602.03;5281123;28;20076;-70
2022/05/10 11:59:34;;;;;;;6.40;4.00;;;;;;;25.89;64.33;101607.91;5266470;28;20479;-70